sensor_id;sensor_type;location;lat;lon;timestamp;pressure;altitude;pressure_sealevel;temperature;humidity
54306;BME280;66145;45.188;5.712;2023-02-20T00:01:52;100341.63;;;18.80;42.81
54306;BME280;66145;45.188;5.712;2023-02-20T00:04:18;100355.22;;;18.91;42.46
54306;BME280;66145;45.188;5.712;2023-02-20T00:06:44;100365.34;;;18.95;42.26
54306;BME280;66145;45.188;5.712;2023-02-20T00:09:09;100351.94;;;18.89;42.55
54306;BME280;66145;45.188;5.712;2023-02-20T00:11:35;100379.56;;;19.03;42.71
54306;BME280;66145;45.188;5.712;2023-02-20T00:14:00;100353.66;;;18.84;42.56
54306;BME280;66145;45.188;5.712;2023-02-20T00:16:26;100377.94;;;18.96;42.73
54306;BME280;66145;45.188;5.712;2023-02-20T00:18:51;100358.88;;;18.81;42.66
54306;BME280;66145;45.188;5.712;2023-02-20T00:21:16;100377.16;;;18.96;42.51
54306;BME280;66145;45.188;5.712;2023-02-20T00:23:42;100366.44;;;18.94;42.61
54306;BME280;66145;45.188;5.712;2023-02-20T00:26:09;100366.19;;;18.91;42.46
54306;BME280;66145;45.188;5.712;2023-02-20T00:28:37;100363.97;;;18.98;42.42
54306;BME280;66145;45.188;5.712;2023-02-20T00:31:03;100382.00;;;19.04;42.56
54306;BME280;66145;45.188;5.712;2023-02-20T00:33:29;100306.75;;;18.57;42.71
54306;BME280;66145;45.188;5.712;2023-02-20T00:35:55;100353.13;;;18.82;42.61
54306;BME280;66145;45.188;5.712;2023-02-20T00:38:20;100369.72;;;18.96;42.32
54306;BME280;66145;45.188;5.712;2023-02-20T00:40:46;100365.13;;;18.87;42.64
54306;BME280;66145;45.188;5.712;2023-02-20T00:43:11;100374.06;;;19.03;42.43
54306;BME280;66145;45.188;5.712;2023-02-20T00:45:37;100371.00;;;19.09;42.66
54306;BME280;66145;45.188;5.712;2023-02-20T00:48:02;100352.94;;;19.03;42.35
54306;BME280;66145;45.188;5.712;2023-02-20T00:50:28;100364.34;;;19.15;42.63
54306;BME280;66145;45.188;5.712;2023-02-20T00:52:53;100347.19;;;19.05;42.61
54306;BME280;66145;45.188;5.712;2023-02-20T00:55:18;100368.44;;;19.18;42.51
54306;BME280;66145;45.188;5.712;2023-02-20T00:57:44;100371.13;;;19.23;42.87
54306;BME280;66145;45.188;5.712;2023-02-20T01:00:20;100365.38;;;19.20;42.61
54306;BME280;66145;45.188;5.712;2023-02-20T01:02:46;100352.09;;;19.08;42.76
54306;BME280;66145;45.188;5.712;2023-02-20T01:05:12;100329.97;;;18.99;42.77
54306;BME280;66145;45.188;5.712;2023-02-20T01:07:37;100357.28;;;19.09;42.96
54306;BME280;66145;45.188;5.712;2023-02-20T01:10:03;100358.91;;;19.10;43.06
54306;BME280;66145;45.188;5.712;2023-02-20T01:12:29;100297.09;;;18.64;42.95
54306;BME280;66145;45.188;5.712;2023-02-20T01:14:54;100372.06;;;19.13;42.71
54306;BME280;66145;45.188;5.712;2023-02-20T01:17:20;100357.03;;;19.06;42.96
54306;BME280;66145;45.188;5.712;2023-02-20T01:19:45;100370.69;;;19.11;42.54
54306;BME280;66145;45.188;5.712;2023-02-20T01:22:11;100368.25;;;19.09;42.80
54306;BME280;66145;45.188;5.712;2023-02-20T01:24:36;100325.66;;;18.88;42.80
54306;BME280;66145;45.188;5.712;2023-02-20T01:27:01;100369.31;;;19.13;42.78
54306;BME280;66145;45.188;5.712;2023-02-20T01:29:27;100295.97;;;18.65;42.68
54306;BME280;66145;45.188;5.712;2023-02-20T01:31:52;100333.56;;;18.94;42.69
54306;BME280;66145;45.188;5.712;2023-02-20T01:34:19;100268.16;;;18.53;42.87
54306;BME280;66145;45.188;5.712;2023-02-20T01:36:49;100339.31;;;18.98;42.91
54306;BME280;66145;45.188;5.712;2023-02-20T01:39:17;100354.84;;;19.08;42.83
54306;BME280;66145;45.188;5.712;2023-02-20T01:41:43;100357.84;;;19.06;42.87
54306;BME280;66145;45.188;5.712;2023-02-20T01:44:23;100353.78;;;19.04;42.85
54306;BME280;66145;45.188;5.712;2023-02-20T01:46:52;100355.97;;;19.02;42.76
54306;BME280;66145;45.188;5.712;2023-02-20T01:49:23;100235.44;;;18.32;42.97
54306;BME280;66145;45.188;5.712;2023-02-20T01:51:56;100358.94;;;19.05;42.76
54306;BME280;66145;45.188;5.712;2023-02-20T01:54:24;100352.13;;;19.03;42.96
54306;BME280;66145;45.188;5.712;2023-02-20T01:56:52;100371.53;;;19.11;42.81
54306;BME280;66145;45.188;5.712;2023-02-20T01:59:20;100366.06;;;19.06;42.73
54306;BME280;66145;45.188;5.712;2023-02-20T02:01:47;100352.94;;;19.03;42.74
54306;BME280;66145;45.188;5.712;2023-02-20T02:04:13;100349.47;;;18.92;42.74
54306;BME280;66145;45.188;5.712;2023-02-20T02:06:47;100367.72;;;19.07;42.72
54306;BME280;66145;45.188;5.712;2023-02-20T02:09:33;100353.78;;;19.04;42.87
54306;BME280;66145;45.188;5.712;2023-02-20T02:12:01;100352.94;;;19.03;42.82
54306;BME280;66145;45.188;5.712;2023-02-20T02:14:27;100315.50;;;18.88;42.85
54306;BME280;66145;45.188;5.712;2023-02-20T02:26:09;100324.91;;;19.11;42.97
54306;BME280;66145;45.188;5.712;2023-02-20T02:32:03;100310.66;;;19.09;43.15
54306;BME280;66145;45.188;5.712;2023-02-20T02:45:54;100313.09;;;19.11;43.02
54306;BME280;66145;45.188;5.712;2023-02-20T02:51:02;100278.78;;;18.89;42.94
54306;BME280;66145;45.188;5.712;2023-02-20T02:53:29;100288.59;;;18.95;43.18
54306;BME280;66145;45.188;5.712;2023-02-20T02:55:54;100308.50;;;19.06;42.91
54306;BME280;66145;45.188;5.712;2023-02-20T02:58:20;100308.72;;;19.10;43.01
54306;BME280;66145;45.188;5.712;2023-02-20T03:00:50;100312.28;;;19.10;42.80
54306;BME280;66145;45.188;5.712;2023-02-20T03:05:56;100310.97;;;19.08;43.07
54306;BME280;66145;45.188;5.712;2023-02-20T03:08:55;100239.84;;;18.63;43.15
54306;BME280;66145;45.188;5.712;2023-02-20T03:11:26;100313.97;;;19.06;42.98
54306;BME280;66145;45.188;5.712;2023-02-20T03:13:56;100316.66;;;19.11;43.14
54306;BME280;66145;45.188;5.712;2023-02-20T03:17:13;100313.63;;;19.13;42.70
54306;BME280;66145;45.188;5.712;2023-02-20T03:19:50;100326.22;;;19.14;43.10
54306;BME280;66145;45.188;5.712;2023-02-20T03:22:32;100285.88;;;18.90;43.15
54306;BME280;66145;45.188;5.712;2023-02-20T03:25:04;100311.47;;;19.10;42.87
54306;BME280;66145;45.188;5.712;2023-02-20T03:27:41;100307.97;;;19.04;43.16
54306;BME280;66145;45.188;5.712;2023-02-20T03:30:21;100318.59;;;19.11;43.05
54306;BME280;66145;45.188;5.712;2023-02-20T03:32:50;100306.31;;;19.03;43.09
54306;BME280;66145;45.188;5.712;2023-02-20T03:35:39;100322.97;;;19.12;43.33
54306;BME280;66145;45.188;5.712;2023-02-20T03:38:28;100322.16;;;19.11;43.23
54306;BME280;66145;45.188;5.712;2023-02-20T03:41:15;100301.72;;;18.98;43.20
54306;BME280;66145;45.188;5.712;2023-02-20T03:44:01;100303.66;;;18.98;43.09
54306;BME280;66145;45.188;5.712;2023-02-20T03:46:31;100322.97;;;19.12;43.29
54306;BME280;66145;45.188;5.712;2023-02-20T03:49:07;100270.63;;;18.79;43.19
54306;BME280;66145;45.188;5.712;2023-02-20T03:51:54;100330.38;;;19.11;43.48
54306;BME280;66145;45.188;5.712;2023-02-20T03:54:23;100301.28;;;18.86;43.38
54306;BME280;66145;45.188;5.712;2023-02-20T03:56:53;100307.22;;;18.93;43.21
54306;BME280;66145;45.188;5.712;2023-02-20T03:59:43;100329.56;;;19.11;43.34
54306;BME280;66145;45.188;5.712;2023-02-20T04:02:33;100342.69;;;19.14;43.26
54306;BME280;66145;45.188;5.712;2023-02-20T04:05:08;100307.53;;;18.92;43.50
54306;BME280;66145;45.188;5.712;2023-02-20T04:07:41;100318.41;;;19.02;43.42
54306;BME280;66145;45.188;5.712;2023-02-20T04:10:12;100333.66;;;19.13;43.43
54306;BME280;66145;45.188;5.712;2023-02-20T04:12:41;100327.06;;;19.14;43.13
54306;BME280;66145;45.188;5.712;2023-02-20T04:15:09;100315.97;;;19.00;43.47
54306;BME280;66145;45.188;5.712;2023-02-20T04:17:43;100332.56;;;19.14;43.60
54306;BME280;66145;45.188;5.712;2023-02-20T04:20:10;100331.19;;;19.12;43.33
54306;BME280;66145;45.188;5.712;2023-02-20T04:22:39;100323.78;;;19.12;43.71
54306;BME280;66145;45.188;5.712;2023-02-20T04:27:43;100214.84;;;18.40;43.56
54306;BME280;66145;45.188;5.712;2023-02-20T04:30:09;100310.44;;;19.06;43.23
54306;BME280;66145;45.188;5.712;2023-02-20T04:32:35;100226.81;;;18.49;43.26
54306;BME280;66145;45.188;5.712;2023-02-20T04:35:00;100317.25;;;19.08;43.35
54306;BME280;66145;45.188;5.712;2023-02-20T04:37:26;100215.91;;;18.44;43.61
54306;BME280;66145;45.188;5.712;2023-02-20T04:39:51;100310.66;;;19.09;43.20
54306;BME280;66145;45.188;5.712;2023-02-20T04:42:17;100321.31;;;19.11;43.23
54306;BME280;66145;45.188;5.712;2023-02-20T04:44:42;100263.28;;;18.74;43.16
54306;BME280;66145;45.188;5.712;2023-02-20T04:47:13;100286.13;;;18.94;43.09
54306;BME280;66145;45.188;5.712;2023-02-20T04:49:39;100323.50;;;19.14;43.20
54306;BME280;66145;45.188;5.712;2023-02-20T04:52:05;100317.56;;;19.07;43.22
54306;BME280;66145;45.188;5.712;2023-02-20T04:54:30;100326.56;;;19.07;43.08
54306;BME280;66145;45.188;5.712;2023-02-20T04:56:56;100319.47;;;19.06;43.18
54306;BME280;66145;45.188;5.712;2023-02-20T04:59:22;100313.22;;;19.00;43.25
54306;BME280;66145;45.188;5.712;2023-02-20T05:01:47;100330.38;;;19.11;43.05
54306;BME280;66145;45.188;5.712;2023-02-20T05:04:16;100324.91;;;19.11;43.27
54306;BME280;66145;45.188;5.712;2023-02-20T05:06:44;100325.44;;;19.13;43.36
54306;BME280;66145;45.188;5.712;2023-02-20T05:09:09;100315.44;;;18.93;44.24
54306;BME280;66145;45.188;5.712;2023-02-20T05:11:36;100328.16;;;18.84;43.64
54306;BME280;66145;45.188;5.712;2023-02-20T05:14:02;100314.94;;;18.91;43.25
54306;BME280;66145;45.188;5.712;2023-02-20T05:16:28;100317.06;;;18.99;43.05
54306;BME280;66145;45.188;5.712;2023-02-20T05:18:53;100327.91;;;19.10;43.12
54306;BME280;66145;45.188;5.712;2023-02-20T05:21:18;100309.38;;;19.02;42.80
54306;BME280;66145;45.188;5.712;2023-02-20T05:24:02;100313.94;;;19.11;42.98
54306;BME280;66145;45.188;5.712;2023-02-20T05:26:28;100284.47;;;18.98;43.00
54306;BME280;66145;45.188;5.712;2023-02-20T05:28:53;100289.59;;;19.05;43.06
54306;BME280;66145;45.188;5.712;2023-02-20T05:31:19;100300.75;;;19.13;42.76
54306;BME280;66145;45.188;5.712;2023-02-20T05:33:44;100229.09;;;18.66;42.96
54306;BME280;66145;45.188;5.712;2023-02-20T05:36:10;100313.59;;;19.18;42.77
54306;BME280;66145;45.188;5.712;2023-02-20T05:38:35;100211.41;;;18.53;42.75
54306;BME280;66145;45.188;5.712;2023-02-20T05:41:00;100297.75;;;19.10;43.02
54306;BME280;66145;45.188;5.712;2023-02-20T05:43:26;100296.38;;;19.12;43.09
54306;BME280;66145;45.188;5.712;2023-02-20T05:45:51;100220.44;;;18.59;42.90
54306;BME280;66145;45.188;5.712;2023-02-20T05:48:16;100286.31;;;19.03;43.17
54306;BME280;66145;45.188;5.712;2023-02-20T05:50:42;100312.25;;;19.15;42.99
54306;BME280;66145;45.188;5.712;2023-02-20T05:53:07;100310.31;;;19.16;43.00
54306;BME280;66145;45.188;5.712;2023-02-20T05:55:33;100285.00;;;19.00;43.19
54306;BME280;66145;45.188;5.712;2023-02-20T05:57:58;100304.03;;;19.15;43.16
54306;BME280;66145;45.188;5.712;2023-02-20T06:00:24;100270.78;;;18.93;43.13
54306;BME280;66145;45.188;5.712;2023-02-20T06:02:50;100313.88;;;19.17;43.02
54306;BME280;66145;45.188;5.712;2023-02-20T06:05:16;100304.28;;;19.14;43.00
54306;BME280;66145;45.188;5.712;2023-02-20T06:07:45;100310.88;;;19.13;43.18
54306;BME280;66145;45.188;5.712;2023-02-20T06:10:11;100319.59;;;19.20;43.24
54306;BME280;66145;45.188;5.712;2023-02-20T06:12:36;100281.41;;;18.99;43.17
54306;BME280;66145;45.188;5.712;2023-02-20T06:15:02;100310.63;;;19.14;43.33
54306;BME280;66145;45.188;5.712;2023-02-20T06:17:28;100254.50;;;18.77;43.30
54306;BME280;66145;45.188;5.712;2023-02-20T06:19:54;100320.69;;;19.19;43.25
54306;BME280;66145;45.188;5.712;2023-02-20T06:22:20;100322.91;;;19.17;43.62
54306;BME280;66145;45.188;5.712;2023-02-20T06:24:46;100292.97;;;18.96;43.38
54306;BME280;66145;45.188;5.712;2023-02-20T06:27:16;100325.44;;;19.13;43.33
54306;BME280;66145;45.188;5.712;2023-02-20T06:29:42;100316.13;;;19.09;43.35
54306;BME280;66145;45.188;5.712;2023-02-20T06:32:07;100316.94;;;19.10;43.22
54306;BME280;66145;45.188;5.712;2023-02-20T06:34:33;100318.09;;;19.09;43.31
54306;BME280;66145;45.188;5.712;2023-02-20T06:36:59;100306.41;;;18.98;43.27
54306;BME280;66145;45.188;5.712;2023-02-20T06:39:27;100336.09;;;19.15;43.34
54306;BME280;66145;45.188;5.712;2023-02-20T06:41:53;100316.19;;;19.04;43.31
54306;BME280;66145;45.188;5.712;2023-02-20T06:44:19;100304.75;;;18.97;43.17
54306;BME280;66145;45.188;5.712;2023-02-20T06:46:44;100323.84;;;19.07;43.31
54306;BME280;66145;45.188;5.712;2023-02-20T06:49:10;100332.25;;;19.16;43.19
54306;BME280;66145;45.188;5.712;2023-02-20T06:51:35;100328.22;;;19.08;43.10
54306;BME280;66145;45.188;5.712;2023-02-20T06:54:02;100265.25;;;18.68;43.31
54306;BME280;66145;45.188;5.712;2023-02-20T06:56:30;100330.97;;;19.08;43.17
54306;BME280;66145;45.188;5.712;2023-02-20T06:58:59;100338.84;;;19.15;43.12
54306;BME280;66145;45.188;5.712;2023-02-20T07:01:27;100318.69;;;19.00;43.48
54306;BME280;66145;45.188;5.712;2023-02-20T07:03:53;100342.13;;;19.17;43.23
54306;BME280;66145;45.188;5.712;2023-02-20T07:06:20;100315.72;;;18.97;43.33
54306;BME280;66145;45.188;5.712;2023-02-20T07:08:45;100310.03;;;18.88;43.25
54306;BME280;66145;45.188;5.712;2023-02-20T07:11:11;100350.34;;;19.17;43.12
54306;BME280;66145;45.188;5.712;2023-02-20T07:13:37;100317.09;;;18.94;43.04
54306;BME280;66145;45.188;5.712;2023-02-20T07:16:03;100325.59;;;18.98;43.00
54306;BME280;66145;45.188;5.712;2023-02-20T07:18:28;100359.69;;;19.16;43.28
54306;BME280;66145;45.188;5.712;2023-02-20T07:20:54;100337.59;;;19.02;42.99
54306;BME280;66145;45.188;5.712;2023-02-20T07:23:19;100350.72;;;19.05;42.94
54306;BME280;66145;45.188;5.712;2023-02-20T07:25:45;100331.34;;;18.96;43.17
54306;BME280;66145;45.188;5.712;2023-02-20T07:28:12;100305.16;;;18.80;42.98
54306;BME280;66145;45.188;5.712;2023-02-20T07:30:37;100300.50;;;18.80;43.16
54306;BME280;66145;45.188;5.712;2023-02-20T07:33:03;100280.59;;;18.69;43.10
54306;BME280;66145;45.188;5.712;2023-02-20T07:35:28;100344.38;;;19.10;43.15
54306;BME280;66145;45.188;5.712;2023-02-20T07:37:54;100345.72;;;19.12;43.09
54306;BME280;66145;45.188;5.712;2023-02-20T07:40:19;100332.41;;;19.00;43.16
54306;BME280;66145;45.188;5.712;2023-02-20T07:42:45;100329.97;;;18.99;42.98
54306;BME280;66145;45.188;5.712;2023-02-20T07:45:10;100336.25;;;18.99;43.06
54306;BME280;66145;45.188;5.712;2023-02-20T07:47:36;100358.88;;;19.15;43.06
54306;BME280;66145;45.188;5.712;2023-02-20T07:50:02;100349.56;;;19.11;42.95
54306;BME280;66145;45.188;5.712;2023-02-20T07:52:27;100363.53;;;19.15;43.31
54306;BME280;66145;45.188;5.712;2023-02-20T07:54:53;100366.25;;;19.15;43.25
54306;BME280;66145;45.188;5.712;2023-02-20T07:57:18;100347.72;;;19.07;43.15
54306;BME280;66145;45.188;5.712;2023-02-20T07:59:43;100364.34;;;19.15;43.07
54306;BME280;66145;45.188;5.712;2023-02-20T08:02:09;100368.44;;;19.18;43.07
54306;BME280;66145;45.188;5.712;2023-02-20T08:04:34;100371.47;;;19.17;42.76
54306;BME280;66145;45.188;5.712;2023-02-20T08:06:59;100331.88;;;18.93;42.74
54306;BME280;66145;45.188;5.712;2023-02-20T08:09:25;100365.47;;;19.14;42.84
54306;BME280;66145;45.188;5.712;2023-02-20T08:11:50;100352.94;;;19.03;43.12
54306;BME280;66145;45.188;5.712;2023-02-20T08:14:16;100353.72;;;19.09;42.92
54306;BME280;66145;45.188;5.712;2023-02-20T08:16:41;100369.25;;;19.19;42.60
54306;BME280;66145;45.188;5.712;2023-02-20T08:19:06;100366.03;;;19.11;42.78
54306;BME280;66145;45.188;5.712;2023-02-20T08:21:32;100291.78;;;18.73;42.96
54306;BME280;66145;45.188;5.712;2023-02-20T08:23:57;100353.97;;;19.12;42.87
54306;BME280;66145;45.188;5.712;2023-02-20T08:26:23;100357.50;;;19.13;42.71
54306;BME280;66145;45.188;5.712;2023-02-20T08:28:52;100330.78;;;18.99;42.77
54306;BME280;66145;45.188;5.712;2023-02-20T08:31:18;100350.69;;;19.10;42.67
54306;BME280;66145;45.188;5.712;2023-02-20T08:33:43;100259.34;;;18.56;42.87
54306;BME280;66145;45.188;5.712;2023-02-20T08:36:09;100320.69;;;18.95;42.89
54306;BME280;66145;45.188;5.712;2023-02-20T08:38:36;100325.59;;;18.98;42.65
54306;BME280;66145;45.188;5.712;2023-02-20T08:41:07;100354.19;;;19.16;42.84
54306;BME280;66145;45.188;5.712;2023-02-20T08:43:36;100309.47;;;18.91;42.62
54306;BME280;66145;45.188;5.712;2023-02-20T08:46:04;100336.97;;;19.10;42.80
54306;BME280;66145;45.188;5.712;2023-02-20T08:48:29;100346.84;;;19.11;42.66
54306;BME280;66145;45.188;5.712;2023-02-20T08:50:55;100272.38;;;18.69;42.54
54306;BME280;66145;45.188;5.712;2023-02-20T08:53:20;100346.41;;;18.99;43.13
54306;BME280;66145;45.188;5.712;2023-02-20T08:55:46;100321.50;;;18.61;42.94
54306;BME280;66145;45.188;5.712;2023-02-20T08:58:12;100341.47;;;18.66;42.83
54306;BME280;66145;45.188;5.712;2023-02-20T09:00:37;100334.09;;;18.62;42.96
54306;BME280;66145;45.188;5.712;2023-02-20T09:03:03;100344.44;;;18.70;42.88
54306;BME280;66145;45.188;5.712;2023-02-20T09:05:34;100273.78;;;18.32;42.85
54306;BME280;66145;45.188;5.712;2023-02-20T09:08:00;100309.75;;;18.60;42.99
54306;BME280;66145;45.188;5.712;2023-02-20T09:10:26;100317.63;;;18.67;42.66
54306;BME280;66145;45.188;5.712;2023-02-20T09:12:52;100336.38;;;18.84;42.95
54306;BME280;66145;45.188;5.712;2023-02-20T09:15:17;100309.69;;;18.65;42.68
54306;BME280;66145;45.188;5.712;2023-02-20T09:17:44;100337.66;;;18.92;42.80
54306;BME280;66145;45.188;5.712;2023-02-20T09:20:15;100293.38;;;18.79;42.53
54306;BME280;66145;45.188;5.712;2023-02-20T09:22:40;100309.41;;;18.96;42.72
54306;BME280;66145;45.188;5.712;2023-02-20T09:25:06;100308.31;;;18.97;42.60
54306;BME280;66145;45.188;5.712;2023-02-20T09:27:32;100312.16;;;18.96;42.52
54306;BME280;66145;45.188;5.712;2023-02-20T09:29:58;100316.09;;;18.85;42.70
54306;BME280;66145;45.188;5.712;2023-02-20T09:32:24;100315.28;;;18.84;42.50
54306;BME280;66145;45.188;5.712;2023-02-20T09:34:49;100226.44;;;18.32;42.31
54306;BME280;66145;45.188;5.712;2023-02-20T09:37:14;100311.94;;;18.88;42.71
54306;BME280;66145;45.188;5.712;2023-02-20T09:39:40;100201.56;;;18.28;42.67
54306;BME280;66145;45.188;5.712;2023-02-20T09:50:02;100242.06;;;18.61;42.56
54306;BME280;66145;45.188;5.712;2023-02-20T09:52:30;100300.34;;;19.01;42.32
54306;BME280;66145;45.188;5.712;2023-02-20T09:55:02;100292.06;;;18.77;42.47
54306;BME280;66145;45.188;5.712;2023-02-20T09:57:30;100295.22;;;18.89;42.05
54306;BME280;66145;45.188;5.712;2023-02-20T10:00:02;100294.59;;;18.97;42.39
54306;BME280;66145;45.188;5.712;2023-02-20T10:02:33;100288.03;;;18.93;42.49
54306;BME280;66145;45.188;5.712;2023-02-20T10:05:22;100288.00;;;18.98;42.33
54306;BME280;66145;45.188;5.712;2023-02-20T10:07:49;100265.97;;;18.79;42.19
54306;BME280;66145;45.188;5.712;2023-02-20T10:10:30;100282.00;;;18.96;42.22
54306;BME280;66145;45.188;5.712;2023-02-20T10:13:53;100280.88;;;18.97;42.19
54306;BME280;66145;45.188;5.712;2023-02-20T10:16:42;100281.84;;;18.82;42.36
54306;BME280;66145;45.188;5.712;2023-02-20T10:29:36;100245.22;;;18.73;42.77
54306;BME280;66145;45.188;5.712;2023-02-20T10:32:08;100224.50;;;18.62;42.95
54306;BME280;66145;45.188;5.712;2023-02-20T10:34:38;100218.19;;;18.61;42.85
54306;BME280;66145;45.188;5.712;2023-02-20T10:37:10;100225.56;;;18.66;42.69
54306;BME280;66145;45.188;5.712;2023-02-20T10:39:44;100244.84;;;18.80;42.69
54306;BME280;66145;45.188;5.712;2023-02-20T10:42:31;100246.56;;;18.76;42.95
54306;BME280;66145;45.188;5.712;2023-02-20T10:45:07;100205.72;;;18.50;42.72
54306;BME280;66145;45.188;5.712;2023-02-20T10:47:50;100210.56;;;18.58;42.86
54306;BME280;66145;45.188;5.712;2023-02-20T10:50:32;100234.72;;;18.80;42.77
54306;BME280;66145;45.188;5.712;2023-02-20T10:56:02;100235.06;;;18.74;42.81
54306;BME280;66145;45.188;5.712;2023-02-20T10:58:32;100226.28;;;18.77;42.68
54306;BME280;66145;45.188;5.712;2023-02-20T11:01:10;100231.03;;;18.66;42.86
54306;BME280;66145;45.188;5.712;2023-02-20T11:06:43;100211.69;;;18.81;42.58
54306;BME280;66145;45.188;5.712;2023-02-20T11:09:09;100218.41;;;18.94;42.51
54306;BME280;66145;45.188;5.712;2023-02-20T11:11:54;100216.75;;;18.93;42.46
54306;BME280;66145;45.188;5.712;2023-02-20T11:14:23;100213.75;;;18.95;42.43
54306;BME280;66145;45.188;5.712;2023-02-20T11:16:57;100208.03;;;18.91;42.42
54306;BME280;66145;45.188;5.712;2023-02-20T11:19:35;100178.63;;;18.73;42.41
54306;BME280;66145;45.188;5.712;2023-02-20T11:22:02;100167.72;;;18.67;42.55
54306;BME280;66145;45.188;5.712;2023-02-20T11:24:34;100201.44;;;18.92;42.61
54306;BME280;66145;45.188;5.712;2023-02-20T11:27:10;100197.84;;;18.92;42.26
54306;BME280;66145;45.188;5.712;2023-02-20T11:32:37;100182.78;;;18.94;42.43
54306;BME280;66145;45.188;5.712;2023-02-20T11:37:28;100180.03;;;18.94;42.45
54306;BME280;66145;45.188;5.712;2023-02-20T11:39:58;100146.19;;;18.80;42.25
54306;BME280;66145;45.188;5.712;2023-02-20T11:42:31;100133.94;;;18.72;41.94
54306;BME280;66145;45.188;5.712;2023-02-20T11:45:30;100159.69;;;19.00;42.41
54306;BME280;66145;45.188;5.712;2023-02-20T11:48:21;100155.31;;;18.99;42.13
54306;BME280;66145;45.188;5.712;2023-02-20T11:50:51;100139.19;;;18.93;42.19
54306;BME280;66145;45.188;5.712;2023-02-20T11:56:06;100134.28;;;18.90;42.26
54306;BME280;66145;45.188;5.712;2023-02-20T11:58:33;100128.88;;;18.84;42.52
54306;BME280;66145;45.188;5.712;2023-02-20T12:00:58;100124.44;;;18.89;42.15
54306;BME280;66145;45.188;5.712;2023-02-20T12:03:26;100097.22;;;18.73;42.31
54306;BME280;66145;45.188;5.712;2023-02-20T12:05:54;100129.56;;;18.95;42.51
54306;BME280;66145;45.188;5.712;2023-02-20T12:11:10;100120.25;;;18.96;42.33
54306;BME280;66145;45.188;5.712;2023-02-20T12:13:39;100108.75;;;18.94;42.50
54306;BME280;66145;45.188;5.712;2023-02-20T12:18:40;100112.72;;;18.83;42.62
54306;BME280;66145;45.188;5.712;2023-02-20T12:21:26;100110.56;;;18.80;42.64
54306;BME280;66145;45.188;5.712;2023-02-20T12:24:04;100097.38;;;18.82;42.59
54306;BME280;66145;45.188;5.712;2023-02-20T12:26:45;100107.72;;;18.90;42.93
54306;BME280;66145;45.188;5.712;2023-02-20T12:42:49;100073.63;;;18.96;43.57
54306;BME280;66145;45.188;5.712;2023-02-20T12:45:58;100059.22;;;18.85;43.78
54306;BME280;66145;45.188;5.712;2023-02-20T12:48:32;100071.22;;;18.95;44.39
54306;BME280;66145;45.188;5.712;2023-02-20T12:56:52;100048.69;;;18.98;44.73
54306;BME280;66145;45.188;5.712;2023-02-20T12:59:35;100028.50;;;18.89;44.73
54306;BME280;66145;45.188;5.712;2023-02-20T13:02:36;100037.41;;;18.99;44.51
54306;BME280;66145;45.188;5.712;2023-02-20T13:05:05;100017.25;;;18.90;44.77
54306;BME280;66145;45.188;5.712;2023-02-20T13:07:44;99995.22;;;18.76;44.42
54306;BME280;66145;45.188;5.712;2023-02-20T13:10:24;100023.31;;;18.87;44.74
54306;BME280;66145;45.188;5.712;2023-02-20T13:12:52;100028.41;;;18.94;44.16
54306;BME280;66145;45.188;5.712;2023-02-20T13:18:33;100013.09;;;18.93;44.36
54306;BME280;66145;45.188;5.712;2023-02-20T13:21:14;99964.72;;;18.64;44.25
54306;BME280;66145;45.188;5.712;2023-02-20T13:23:40;99959.84;;;18.61;44.09
54306;BME280;66145;45.188;5.712;2023-02-20T13:31:50;100006.16;;;19.00;44.12
54306;BME280;66145;45.188;5.712;2023-02-20T13:36:42;99985.91;;;18.96;44.14
54306;BME280;66145;45.188;5.712;2023-02-20T13:44:43;99980.94;;;18.98;43.84
54306;BME280;66145;45.188;5.712;2023-02-20T13:54:55;99976.50;;;19.03;43.64
54306;BME280;66145;45.188;5.712;2023-02-20T13:57:21;99886.53;;;18.52;43.51
54306;BME280;66145;45.188;5.712;2023-02-20T13:59:51;99958.94;;;19.04;43.29
54306;BME280;66145;45.188;5.712;2023-02-20T14:02:21;99929.97;;;18.78;43.70
54306;BME280;66145;45.188;5.712;2023-02-20T14:05:03;99954.41;;;18.94;43.54
54306;BME280;66145;45.188;5.712;2023-02-20T14:07:37;99925.91;;;18.76;43.57
54306;BME280;66145;45.188;5.712;2023-02-20T14:10:17;99875.34;;;18.49;43.67
54306;BME280;66145;45.188;5.712;2023-02-20T14:12:45;99939.06;;;18.93;43.53
54306;BME280;66145;45.188;5.712;2023-02-20T14:15:17;99933.59;;;18.93;43.25
54306;BME280;66145;45.188;5.712;2023-02-20T14:17:42;99870.31;;;18.56;43.38
54306;BME280;66145;45.188;5.712;2023-02-20T14:20:19;99937.59;;;19.00;43.30
54306;BME280;66145;45.188;5.712;2023-02-20T14:22:47;99933.25;;;18.99;43.37
54306;BME280;66145;45.188;5.712;2023-02-20T14:25:23;99933.44;;;19.03;43.25
54306;BME280;66145;45.188;5.712;2023-02-20T14:27:50;99928.88;;;18.98;43.00
54306;BME280;66145;45.188;5.712;2023-02-20T14:30:19;99932.72;;;18.97;43.07
54306;BME280;66145;45.188;5.712;2023-02-20T14:32:47;99856.47;;;18.47;43.25
54306;BME280;66145;45.188;5.712;2023-02-20T14:35:41;99900.63;;;18.79;43.19
54306;BME280;66145;45.188;5.712;2023-02-20T14:40:41;99924.09;;;19.04;42.70
54306;BME280;66145;45.188;5.712;2023-02-20T14:43:18;99911.81;;;19.02;43.07
54306;BME280;66145;45.188;5.712;2023-02-20T14:45:45;99882.22;;;18.84;42.92
54306;BME280;66145;45.188;5.712;2023-02-20T14:48:24;99883.53;;;18.87;42.88
54306;BME280;66145;45.188;5.712;2023-02-20T14:51:15;99882.56;;;18.78;42.82
54306;BME280;66145;45.188;5.712;2023-02-20T14:53:42;99891.94;;;18.91;42.89
54306;BME280;66145;45.188;5.712;2023-02-20T14:56:16;99884.94;;;18.84;42.91
54306;BME280;66145;45.188;5.712;2023-02-20T14:58:45;99907.75;;;18.99;42.86
54306;BME280;66145;45.188;5.712;2023-02-20T15:01:34;99902.28;;;18.99;42.77